Time;durP1;ratioP1;P1;durP2;ratioP2;P2;SDS_P1;SDS_P2;PMS_P1;PMS_P2;Temp;Humidity;BMP_temperature;BMP_pressure;BME280_temperature;BME280_humidity;BME280_pressure;Samples;Min_cycle;Max_cycle;Signal;HPM_P1;HPM_P2
2021/05/10 00:02:03;;;;;;;4.80;2.83;;;;;;;13.08;43.47;100500.19;5015580;28;20026;-71
2021/05/10 00:04:29;;;;;;;6.03;3.13;;;;;;;13.11;43.27;100500.81;5016521;28;20069;-71
2021/05/10 00:06:54;;;;;;;7.15;3.22;;;;;;;13.13;43.46;100498.94;5016455;28;20069;-74
2021/05/10 00:09:20;;;;;;;6.60;3.40;;;;;;;13.16;43.39;100488.00;5033626;28;20042;-74
2021/05/10 00:11:45;;;;;;;8.65;4.15;;;;;;;13.09;43.83;100494.72;5016081;28;20076;-74
2021/05/10 00:14:11;;;;;;;7.07;3.72;;;;;;;12.92;44.39;100486.94;5033574;28;20092;-73
2021/05/10 00:16:37;;;;;;;8.25;4.10;;;;;;;12.97;44.29;100484.84;5016160;28;20030;-74
2021/05/10 00:19:03;;;;;;;6.60;3.72;;;;;;;12.98;44.42;100485.69;5033550;28;20040;-75
2021/05/10 00:21:28;;;;;;;5.78;3.20;;;;;;;12.89;44.28;100463.06;5033886;28;20053;-74
2021/05/10 00:23:54;;;;;;;5.40;3.30;;;;;;;12.87;44.80;100491.75;5016314;28;20033;-71
2021/05/10 00:26:19;;;;;;;7.50;3.17;;;;;;;12.64;45.32;100471.81;5033317;28;20037;-74
2021/05/10 00:28:45;;;;;;;5.72;2.95;;;;;;;12.57;45.54;100460.69;5033760;28;20036;-74
2021/05/10 00:31:10;;;;;;;6.88;3.40;;;;;;;12.73;45.45;100492.63;5015987;28;20033;-74
2021/05/10 00:33:36;;;;;;;5.50;2.80;;;;;;;12.65;45.86;100488.78;5015976;28;20033;-73
2021/05/10 00:36:01;;;;;;;5.35;2.85;;;;;;;12.58;45.70;100472.25;5015507;28;20133;-76
2021/05/10 00:38:27;;;;;;;6.15;3.00;;;;;;;12.74;46.06;100493.50;5016193;28;20037;-74
2021/05/10 00:40:52;;;;;;;7.65;3.10;;;;;;;12.63;46.36;100502.22;4983670;28;20030;-70
2021/05/10 00:43:18;;;;;;;4.13;2.40;;;;;;;12.62;46.21;100489.81;5033287;28;20053;-69
2021/05/10 00:45:43;;;;;;;5.28;2.67;;;;;;;12.66;46.19;100495.84;5033624;28;20037;-68
2021/05/10 00:48:09;;;;;;;6.05;3.08;;;;;;;12.60;46.38;100492.59;5015364;28;20466;-70
2021/05/10 00:50:35;;;;;;;4.30;2.53;;;;;;;12.57;46.61;100476.75;4999294;28;20037;-69
2021/05/10 00:53:00;;;;;;;8.07;3.30;;;;;;;12.56;46.74;100485.72;5033363;28;20140;-70
2021/05/10 00:55:27;;;;;;;4.80;3.00;;;;;;;12.56;46.85;100492.91;5015274;28;20029;-68
2021/05/10 00:57:55;;;;;;;6.25;3.20;;;;;;;12.49;47.27;100492.44;5033326;28;20430;-68
2021/05/10 01:00:22;;;;;;;5.90;2.80;;;;;;;12.42;47.17;100488.41;5032896;28;20432;-69
2021/05/10 01:02:48;;;;;;;5.72;3.00;;;;;;;12.42;47.39;100484.88;5033035;28;20063;-69
2021/05/10 01:05:15;;;;;;;4.70;2.53;;;;;;;12.19;47.37;100448.94;5015024;28;20040;-68
2021/05/10 01:07:41;;;;;;;3.80;2.30;;;;;;;12.47;47.37;100480.97;5015747;28;20033;-69
2021/05/10 01:10:12;;;;;;;4.70;2.70;;;;;;;12.04;47.69;100430.22;5032861;28;20414;-68
2021/05/10 01:12:38;;;;;;;5.18;2.28;;;;;;;12.32;48.17;100481.94;5032863;28;20052;-68
2021/05/10 01:15:09;;;;;;;6.07;3.10;;;;;;;12.27;48.24;100468.88;5032973;28;20041;-69
2021/05/10 01:17:36;;;;;;;4.65;2.50;;;;;;;12.31;48.37;100480.22;5032753;28;20036;-69
2021/05/10 01:20:08;;;;;;;4.85;2.90;;;;;;;12.20;48.57;100472.03;5033156;28;20033;-69
2021/05/10 01:22:42;;;;;;;5.17;2.70;;;;;;;12.01;48.87;100457.16;5033277;28;20029;-67
2021/05/10 01:25:11;;;;;;;;;;;;;;;12.08;49.09;100470.13;5033109;28;20026;-68
2021/05/10 01:27:37;;;;;;;5.07;2.63;;;;;;;12.02;49.17;100468.69;5015148;28;19917;-68
2021/05/10 01:30:13;;;;;;;4.85;2.20;;;;;;;11.91;49.79;100472.03;5033345;28;20040;-70
2021/05/10 01:32:39;;;;;;;5.07;2.33;;;;;;;11.91;49.89;100471.19;5033082;28;20040;-69
2021/05/10 01:35:07;;;;;;;6.93;2.50;;;;;;;11.83;50.22;100462.78;5015255;28;20390;-70
2021/05/10 01:37:32;;;;;;;4.57;2.40;;;;;;;11.83;50.44;100468.97;5032827;28;20034;-69
2021/05/10 01:39:58;;;;;;;5.90;2.40;;;;;;;11.71;50.75;100456.34;5033035;28;20061;-67
2021/05/10 01:42:23;;;;;;;4.70;2.78;;;;;;;11.72;50.86;100463.41;5015020;28;20390;-68
2021/05/10 01:44:49;;;;;;;5.95;2.50;;;;;;;11.52;51.10;100434.38;5014889;28;20513;-68
2021/05/10 01:47:14;;;;;;;6.93;2.50;;;;;;;11.58;51.47;100464.28;5032486;28;20041;-71
2021/05/10 01:49:45;;;;;;;5.55;3.00;;;;;;;11.58;51.70;100458.94;5032587;28;20155;-70
2021/05/10 01:52:13;;;;;;;5.78;2.50;;;;;;;11.49;51.75;100450.63;5032389;28;20037;-71
2021/05/10 01:54:39;;;;;;;6.22;2.33;;;;;;;11.50;51.86;100450.50;4998502;28;20037;-71
2021/05/10 01:57:05;;;;;;;4.00;2.35;;;;;;;11.34;52.00;100423.88;5032372;28;20394;-70
2021/05/10 01:59:30;;;;;;;5.95;2.53;;;;;;;11.45;52.25;100440.09;5032424;28;20041;-70
2021/05/10 02:01:56;;;;;;;4.63;2.53;;;;;;;11.47;52.06;100450.69;5015088;28;20040;-70
2021/05/10 02:04:21;;;;;;;5.50;2.75;;;;;;;11.44;52.46;100449.06;5014964;28;20381;-70
2021/05/10 02:06:47;;;;;;;6.53;2.55;;;;;;;11.30;52.71;100426.81;5032475;28;20029;-70
2021/05/10 02:09:12;;;;;;;5.32;2.45;;;;;;;11.23;52.85;100423.66;5032471;28;20034;-70
2021/05/10 02:11:38;;;;;;;4.53;2.63;;;;;;;11.17;53.29;100426.69;5032240;28;20056;-70
2021/05/10 02:14:03;;;;;;;4.75;2.58;;;;;;;11.11;53.14;100433.25;5032728;28;20037;-70
2021/05/10 02:16:29;;;;;;;4.85;2.80;;;;;;;11.09;53.51;100418.28;5031806;28;20061;-70
2021/05/10 02:18:57;;;;;;;4.85;2.70;;;;;;;11.19;53.21;100438.13;4998613;28;20120;-70
2021/05/10 02:21:28;;;;;;;5.18;2.78;;;;;;;11.13;53.83;100450.03;5032032;28;20044;-73
2021/05/10 02:23:54;;;;;;;9.18;3.00;;;;;;;11.16;53.61;100449.00;5033202;28;20025;-69
2021/05/10 02:26:19;;;;;;;6.57;2.90;;;;;;;11.11;54.10;100448.44;5001781;28;20046;-70
2021/05/10 02:28:45;;;;;;;4.53;2.67;;;;;;;10.96;54.24;100427.97;5018472;28;20366;-72
2021/05/10 02:31:10;;;;;;;5.60;2.50;;;;;;;10.94;54.09;100435.22;5001740;28;20041;-72
2021/05/10 02:33:36;;;;;;;6.45;2.97;;;;;;;10.91;54.70;100435.41;5001874;28;20416;-72
2021/05/10 02:36:02;;;;;;;6.03;2.80;;;;;;;10.95;55.17;100459.13;5018221;28;20136;-72
2021/05/10 02:38:28;;;;;;;6.55;3.28;;;;;;;10.91;55.28;100459.41;5035625;28;20037;-72
2021/05/10 02:40:54;;;;;;;5.15;2.90;;;;;;;10.76;55.53;100446.00;5035618;28;20527;-72
2021/05/10 02:43:22;;;;;;;6.15;3.10;;;;;;;10.72;55.55;100441.81;5017628;28;20095;-71
2021/05/10 02:45:49;;;;;;;6.32;3.20;;;;;;;10.84;55.60;100459.75;5035658;28;20042;-68
2021/05/10 02:48:14;;;;;;;4.70;2.80;;;;;;;10.88;56.19;100460.44;5017667;28;20048;-73
2021/05/10 02:50:40;;;;;;;5.75;2.97;;;;;;;10.76;56.33;100464.69;5035645;28;20030;-71
2021/05/10 02:53:06;;;;;;;7.47;2.92;;;;;;;10.52;56.22;100423.41;5017964;28;20044;-71
2021/05/10 02:55:32;;;;;;;7.80;2.83;;;;;;;10.76;56.62;100470.00;5035283;28;20041;-71
2021/05/10 02:57:57;;;;;;;5.97;3.00;;;;;;;10.78;56.28;100470.78;5035475;28;20373;-70
2021/05/10 03:00:25;;;;;;;6.13;3.05;;;;;;;10.77;55.83;100478.88;5035423;28;20045;-71
2021/05/10 03:02:52;;;;;;;8.40;3.17;;;;;;;10.71;56.75;100471.22;5035351;28;20060;-71
2021/05/10 03:05:18;;;;;;;6.90;2.72;;;;;;;10.72;56.55;100467.63;5035143;28;20038;-71
2021/05/10 03:07:43;;;;;;;4.50;2.70;;;;;;;10.87;55.93;100467.56;5035078;28;20044;-70
2021/05/10 03:10:13;;;;;;;7.22;2.90;;;;;;;10.76;56.63;100471.81;5017395;28;20041;-71
2021/05/10 03:12:40;;;;;;;8.35;3.08;;;;;;;10.55;57.05;100448.09;5034909;28;20061;-71
2021/05/10 03:15:08;;;;;;;6.43;3.13;;;;;;;10.66;57.44;100468.81;5035078;28;20082;-72
2021/05/10 03:17:34;;;;;;;8.90;2.90;;;;;;;10.62;58.25;100479.75;5017255;28;20042;-72
2021/05/10 03:19:59;;;;;;;7.95;2.97;;;;;;;10.62;57.85;100480.63;5017189;28;20473;-72
2021/05/10 03:22:25;;;;;;;7.85;3.20;;;;;;;10.57;58.02;100474.69;5016895;28;20036;-72
2021/05/10 03:24:51;;;;;;;7.40;2.75;;;;;;;10.51;58.75;100470.53;5017113;28;20029;-72
2021/05/10 03:27:16;;;;;;;7.03;3.17;;;;;;;10.43;59.12;100461.28;5035030;28;20038;-72
2021/05/10 03:29:41;;;;;;;10.30;3.58;;;;;;;10.51;59.44;100486.53;5019459;28;20432;-71
2021/05/10 03:32:07;;;;;;;6.45;2.90;;;;;;;10.71;58.62;100484.53;5017934;28;20091;-71
2021/05/10 03:34:33;;;;;;;10.00;3.30;;;;;;;10.53;58.85;100462.47;5000709;28;20037;-71
2021/05/10 03:36:58;;;;;;;6.50;2.80;;;;;;;10.81;58.21;100472.44;5034835;28;20087;-72
2021/05/10 03:39:24;;;;;;;6.82;2.92;;;;;;;10.69;57.98;100438.44;5034558;28;20045;-71
2021/05/10 03:41:49;;;;;;;5.95;3.05;;;;;;;10.60;57.98;100434.47;5016913;28;20069;-70
2021/05/10 03:44:14;;;;;;;6.88;2.90;;;;;;;10.89;57.74;100481.69;5034341;28;20037;-75
2021/05/10 03:46:40;;;;;;;6.53;3.00;;;;;;;10.81;58.11;100470.63;5016931;28;20033;-70
2021/05/10 03:49:05;;;;;;;9.73;3.42;;;;;;;10.91;58.16;100481.63;5034416;28;20388;-71
2021/05/10 03:51:31;;;;;;;6.65;3.40;;;;;;;11.03;57.72;100488.06;5000065;28;20033;-70
2021/05/10 03:53:56;;;;;;;9.13;3.20;;;;;;;11.24;57.53;100484.13;5034198;28;20076;-73
2021/05/10 03:56:22;;;;;;;8.38;3.08;;;;;;;11.76;55.77;100481.81;5034006;28;20029;-74
2021/05/10 03:58:47;;;;;;;8.73;3.50;;;;;;;12.58;53.17;100473.09;5016831;28;20033;-75
2021/05/10 04:01:13;;;;;;;9.18;3.40;;;;;;;13.59;50.14;100479.75;5034234;28;20120;-73
2021/05/10 04:07:08;;;;;;;7.47;3.70;;;;;;;15.69;44.57;100465.22;4992501;28;20045;-69
2021/05/10 04:14:43;;;;;;;8.20;3.83;;;;;;;17.21;40.19;100467.25;5034010;28;20104;-69
2021/05/10 04:17:09;;;;;;;9.75;4.53;;;;;;;17.36;39.38;100455.16;5034043;28;20068;-68
2021/05/10 04:19:34;;;;;;;10.40;4.22;;;;;;;17.49;38.81;100423.47;5015889;28;20112;-68
2021/05/10 04:22:00;;;;;;;11.60;4.00;;;;;;;17.98;38.31;100479.44;5033724;28;20063;-69
2021/05/10 04:24:25;;;;;;;10.90;4.22;;;;;;;17.61;38.87;100462.00;5033313;28;20497;-69
2021/05/10 04:26:51;;;;;;;11.85;4.57;;;;;;;17.32;39.19;100459.97;5033525;28;20041;-69
2021/05/10 04:29:16;;;;;;;6.90;3.80;;;;;;;17.32;39.31;100464.50;5033448;28;20034;-70
2021/05/10 04:31:42;;;;;;;8.93;4.63;;;;;;;17.70;38.71;100486.38;5033170;28;20037;-70
2021/05/10 04:34:07;;;;;;;11.55;4.88;;;;;;;18.27;37.97;100474.16;5033472;28;20060;-70
2021/05/10 04:36:33;;;;;;;11.18;4.93;;;;;;;18.47;37.15;100460.75;5015791;28;20421;-69
2021/05/10 04:38:59;;;;;;;13.18;5.70;;;;;;;18.64;36.99;100476.28;5033520;28;20036;-72
2021/05/10 04:41:24;;;;;;;14.23;6.20;;;;;;;18.94;36.76;100471.81;4999272;28;20120;-69
2021/05/10 04:43:50;;;;;;;11.45;5.70;;;;;;;19.33;35.46;100470.81;5033759;28;20033;-69
2021/05/10 04:46:15;;;;;;;11.48;5.35;;;;;;;19.34;35.71;100458.16;5033128;28;20446;-69
2021/05/10 04:48:42;;;;;;;12.23;5.15;;;;;;;19.42;34.93;100418.56;5033167;28;20390;-69
2021/05/10 04:51:07;;;;;;;10.63;4.30;;;;;;;19.87;34.70;100466.63;5033494;28;20057;-72
2021/05/10 04:53:33;;;;;;;9.65;4.78;;;;;;;20.04;34.25;100472.28;5033115;28;20077;-72
2021/05/10 04:55:59;;;;;;;8.15;3.95;;;;;;;19.72;34.72;100462.69;5033050;28;20029;-72
2021/05/10 04:58:24;;;;;;;6.10;3.35;;;;;;;19.68;35.37;100472.09;5032716;28;20448;-73
2021/05/10 05:00:49;;;;;;;6.93;2.97;;;;;;;18.90;36.51;100476.63;5033176;28;20041;-72
2021/05/10 05:03:15;;;;;;;5.22;2.85;;;;;;;18.40;36.74;100457.72;5033266;28;20033;-71
2021/05/10 05:05:40;;;;;;;8.23;3.47;;;;;;;19.09;36.69;100478.50;5032558;28;20029;-72
2021/05/10 05:08:06;;;;;;;6.75;3.13;;;;;;;19.32;35.71;100473.69;5033077;28;20033;-72
2021/05/10 05:10:32;;;;;;;6.68;2.70;;;;;;;19.74;34.76;100455.28;5032698;28;20496;-72
2021/05/10 05:12:57;;;;;;;5.75;2.60;;;;;;;20.25;33.91;100464.78;5032931;28;20053;-73
2021/05/10 05:15:22;;;;;;;4.97;2.70;;;;;;;20.82;32.76;100476.34;5032449;28;20039;-76
2021/05/10 05:17:48;;;;;;;4.85;2.85;;;;;;;20.95;32.43;100436.16;5032883;28;20037;-73
2021/05/10 05:20:14;;;;;;;8.57;2.53;;;;;;;21.42;31.66;100465.75;5032773;28;20038;-75
2021/05/10 05:22:40;;;;;;;8.63;2.88;;;;;;;21.81;31.17;100477.13;4998644;28;20049;-70
2021/05/10 05:25:07;;;;;;;10.13;2.83;;;;;;;21.71;31.00;100481.75;5015040;28;20038;-70
2021/05/10 05:27:34;;;;;;;4.10;2.33;;;;;;;22.04;30.47;100477.41;5032378;28;20025;-71
2021/05/10 05:29:59;;;;;;;5.07;2.33;;;;;;;21.88;30.70;100474.59;5032959;28;20025;-74
2021/05/10 05:32:25;;;;;;;5.43;2.30;;;;;;;21.82;30.65;100467.94;5014792;28;20060;-71
2021/05/10 05:34:51;;;;;;;4.88;2.33;;;;;;;22.07;30.12;100492.56;5015255;28;20038;-70
2021/05/10 05:37:17;;;;;;;7.30;2.85;;;;;;;21.89;30.36;100487.16;5032514;28;20072;-70
2021/05/10 05:39:42;;;;;;;4.22;2.70;;;;;;;22.24;30.02;100478.91;5014812;28;20434;-70
2021/05/10 05:42:08;;;;;;;7.15;2.78;;;;;;;22.49;29.70;100493.47;5032646;28;20030;-73
2021/05/10 05:44:36;;;;;;;5.57;2.50;;;;;;;22.36;29.95;100486.78;4998529;28;20038;-75
2021/05/10 05:47:03;;;;;;;10.48;2.72;;;;;;;22.63;29.64;100494.72;5032507;28;20493;-72
2021/05/10 05:49:31;;;;;;;6.40;2.63;;;;;;;22.53;29.91;100488.56;5032506;28;20033;-72
2021/05/10 05:51:57;;;;;;;5.80;2.53;;;;;;;22.88;29.03;100475.81;5015240;28;20060;-73
2021/05/10 05:54:23;;;;;;;4.32;2.60;;;;;;;22.77;29.65;100485.91;5014931;28;20030;-72
2021/05/10 05:56:50;;;;;;;5.45;2.60;;;;;;;23.05;28.74;100489.25;5032176;28;20040;-74
2021/05/10 05:59:16;;;;;;;5.82;2.30;;;;;;;23.05;28.70;100450.31;5034211;28;20133;-75
2021/05/10 06:01:41;;;;;;;6.90;3.15;;;;;;;22.88;29.77;100478.53;5036184;28;20513;-76
2021/05/10 06:04:07;;;;;;;5.07;2.97;;;;;;;23.39;29.01;100475.53;5036469;28;20087;-76
2021/05/10 06:06:32;;;;;;;6.22;2.70;;;;;;;23.64;28.01;100467.38;5016859;28;20474;-74
2021/05/10 06:08:58;;;;;;;6.93;2.50;;;;;;;23.23;28.62;100461.03;5000412;28;20021;-73
2021/05/10 06:11:24;;;;;;;5.65;2.65;;;;;;;23.54;28.50;100466.66;5026534;28;20789;-76
2021/05/10 06:13:49;;;;;;;5.75;2.42;;;;;;;23.53;28.45;100460.38;4996347;28;20042;-75
2021/05/10 06:16:15;;;;;;;5.53;2.22;;;;;;;23.61;28.33;100456.81;5000929;28;20075;-78
2021/05/10 06:18:42;;;;;;;4.28;2.17;;;;;;;24.14;27.37;100441.75;5027942;28;20481;-73
2021/05/10 06:21:08;;;;;;;5.35;2.55;;;;;;;23.77;28.03;100454.09;5035876;28;20045;-73
2021/05/10 06:23:33;;;;;;;5.70;2.20;;;;;;;23.53;28.40;100438.59;5018319;28;20041;-75
2021/05/10 06:25:59;;;;;;;5.10;2.55;;;;;;;23.96;27.50;100440.09;5035832;28;20083;-76
2021/05/10 06:28:25;;;;;;;6.22;2.70;;;;;;;23.84;27.85;100460.56;5017873;28;20033;-76
2021/05/10 06:30:51;;;;;;;4.72;2.38;;;;;;;24.44;27.27;100459.22;5035722;28;20091;-73
2021/05/10 06:33:16;;;;;;;4.35;2.17;;;;;;;23.81;27.63;100436.38;5018246;28;20080;-73
2021/05/10 06:35:42;;;;;;;6.65;2.40;;;;;;;24.38;27.64;100459.91;5018079;28;20047;-74
2021/05/10 06:38:12;;;;;;;5.47;2.50;;;;;;;24.36;27.57;100470.13;5000996;28;20061;-75
2021/05/10 06:40:37;;;;;;;6.18;2.35;;;;;;;24.83;26.91;100453.72;5017588;28;20128;-73
2021/05/10 06:43:02;;;;;;;5.32;2.60;;;;;;;24.81;26.58;100414.88;5035869;28;20468;-75
2021/05/10 06:45:28;;;;;;;4.53;2.22;;;;;;;24.65;26.77;100440.34;5001390;28;20466;-70
2021/05/10 06:47:54;;;;;;;5.50;2.20;;;;;;;24.63;26.81;100444.28;5001476;28;20512;-73
2021/05/10 06:50:19;;;;;;;7.72;2.45;;;;;;;24.66;27.10;100444.78;5035406;28;20053;-69
2021/05/10 06:52:45;;;;;;;7.32;2.15;;;;;;;24.44;27.02;100443.69;5020016;28;20038;-73
2021/05/10 06:55:10;;;;;;;5.65;2.20;;;;;;;23.41;28.15;100413.59;5037542;28;20474;-68
2021/05/10 06:57:36;;;;;;;6.35;2.40;;;;;;;23.30;29.66;100443.88;5017891;28;20440;-74
2021/05/10 07:00:03;;;;;;;5.07;2.40;;;;;;;22.44;30.41;100448.78;5043634;28;20041;-68
2021/05/10 07:02:28;;;;;;;4.68;2.30;;;;;;;22.11;31.10;100443.19;5041943;28;20478;-71
2021/05/10 07:04:54;;;;;;;7.90;2.70;;;;;;;22.18;30.77;100429.78;5001487;28;20087;-70
2021/05/10 07:07:20;;;;;;;5.88;2.75;;;;;;;21.61;31.62;100449.28;5017347;28;20647;-69
2021/05/10 07:09:45;;;;;;;7.40;2.35;;;;;;;21.60;32.39;100441.31;5017158;28;20056;-68
2021/05/10 07:12:12;;;;;;;3.95;2.25;;;;;;;21.89;31.53;100452.69;5017166;28;20467;-71
2021/05/10 07:14:38;;;;;;;6.53;2.30;;;;;;;21.85;31.70;100451.34;5001166;28;20103;-72
2021/05/10 07:17:04;;;;;;;4.03;2.13;;;;;;;21.80;31.71;100452.81;5017154;28;20041;-70
2021/05/10 07:19:30;;;;;;;5.72;2.20;;;;;;;21.64;31.70;100453.56;5034045;28;20041;-74
2021/05/10 07:21:55;;;;;;;3.95;2.20;;;;;;;21.63;31.93;100443.72;5017011;28;20034;-74
2021/05/10 07:24:21;;;;;;;5.68;2.40;;;;;;;21.49;31.89;100442.41;5035046;28;20047;-72
2021/05/10 07:26:46;;;;;;;7.82;2.60;;;;;;;21.34;31.88;100444.00;5035030;28;20041;-71
2021/05/10 07:29:12;;;;;;;5.25;2.20;;;;;;;21.22;31.57;100437.91;5016558;28;20037;-75
2021/05/10 07:31:38;;;;;;;5.05;1.90;;;;;;;21.14;32.35;100436.00;5016933;28;20040;-71
2021/05/10 07:34:04;;;;;;;6.63;2.42;;;;;;;21.20;32.25;100434.50;4984422;28;20045;-70
2021/05/10 07:36:29;;;;;;;8.00;2.28;;;;;;;20.93;32.01;100402.06;5034158;28;20034;-71
2021/05/10 07:38:55;;;;;;;3.53;1.90;;;;;;;20.99;32.31;100426.69;5033922;28;20397;-70
2021/05/10 07:41:20;;;;;;;5.38;2.13;;;;;;;21.03;32.10;100414.53;5016472;28;20029;-72
2021/05/10 07:43:46;;;;;;;4.15;2.20;;;;;;;21.00;32.11;100412.13;5016692;28;20148;-76
2021/05/10 07:46:11;;;;;;;6.03;2.30;;;;;;;20.78;32.25;100421.59;5016854;28;20029;-74
2021/05/10 07:48:37;;;;;;;3.85;2.10;;;;;;;20.70;32.46;100410.66;5034079;28;20042;-72
2021/05/10 07:51:02;;;;;;;3.97;2.28;;;;;;;20.85;32.30;100419.97;5016689;28;20076;-72
2021/05/10 07:53:28;;;;;;;5.18;2.17;;;;;;;21.00;32.38;100422.13;5034093;28;20033;-74
2021/05/10 07:55:54;;;;;;;5.25;1.95;;;;;;;20.72;32.43;100376.13;5034028;28;20499;-73
2021/05/10 07:58:21;;;;;;;5.95;2.53;;;;;;;21.07;32.81;100421.34;5032719;28;20037;-72
2021/05/10 08:00:47;;;;;;;8.32;2.20;;;;;;;21.02;32.36;100415.53;5014203;28;20038;-72
2021/05/10 08:03:15;;;;;;;5.45;2.17;;;;;;;21.01;31.94;100419.25;4996628;28;20033;-72
2021/05/10 08:05:43;;;;;;;6.25;1.95;;;;;;;20.97;32.19;100401.59;4996883;28;20441;-70
2021/05/10 08:08:13;;;;;;;5.80;2.13;;;;;;;21.13;31.92;100420.75;5013771;28;20042;-70
2021/05/10 08:10:38;;;;;;;3.80;2.20;;;;;;;21.05;32.14;100398.97;5013819;28;20041;-73
2021/05/10 08:13:04;;;;;;;4.78;2.33;;;;;;;21.14;32.07;100408.88;5013628;28;20057;-71
2021/05/10 08:15:30;;;;;;;3.75;1.98;;;;;;;21.09;31.78;100394.94;5014323;28;20037;-70
2021/05/10 08:17:55;;;;;;;7.13;2.20;;;;;;;21.10;32.13;100369.50;5013046;28;20116;-74
2021/05/10 08:20:21;;;;;;;5.18;2.30;;;;;;;21.28;32.22;100382.22;4996244;28;20030;-73
2021/05/10 08:22:46;;;;;;;3.83;1.90;;;;;;;21.46;31.77;100390.34;5013071;28;20034;-72
2021/05/10 08:25:12;;;;;;;4.72;2.42;;;;;;;21.46;31.71;100388.47;5013804;28;20044;-73
2021/05/10 08:27:39;;;;;;;4.85;2.03;;;;;;;21.38;31.88;100378.41;5013646;28;20034;-70
2021/05/10 08:30:10;;;;;;;6.65;2.10;;;;;;;21.29;32.05;100362.22;4996483;28;20034;-73
2021/05/10 08:32:36;;;;;;;5.55;1.90;;;;;;;21.37;31.27;100381.28;4996056;28;20136;-74
2021/05/10 08:35:03;;;;;;;3.97;1.77;;;;;;;21.38;31.82;100367.56;5013599;28;20118;-75
2021/05/10 08:37:29;;;;;;;7.18;2.42;;;;;;;21.51;31.62;100380.69;5017570;28;20083;-74
2021/05/10 08:39:55;;;;;;;6.10;2.22;;;;;;;21.28;31.42;100360.53;5033070;28;20409;-73
2021/05/10 08:42:21;;;;;;;5.60;2.47;;;;;;;21.47;31.64;100382.03;5033317;28;20037;-75
2021/05/10 08:44:47;;;;;;;6.63;1.98;;;;;;;21.52;31.45;100368.84;5033314;28;20034;-71
2021/05/10 08:47:12;;;;;;;4.97;2.00;;;;;;;21.71;31.51;100374.06;5016377;28;20041;-72
2021/05/10 08:49:38;;;;;;;4.85;2.20;;;;;;;21.72;31.57;100369.47;5036319;28;20030;-75
2021/05/10 08:52:04;;;;;;;5.03;2.05;;;;;;;21.69;31.33;100370.63;5033249;28;20061;-73
2021/05/10 08:54:31;;;;;;;5.65;2.25;;;;;;;21.74;31.25;100353.88;5032794;28;20100;-71
2021/05/10 08:57:01;;;;;;;4.63;2.15;;;;;;;21.88;31.34;100361.38;5015762;28;20087;-70
2021/05/10 08:59:27;;;;;;;4.40;2.40;;;;;;;22.03;30.78;100353.50;5032711;28;20036;-71
2021/05/10 09:01:58;;;;;;;5.55;2.10;;;;;;;21.96;31.31;100344.28;5015521;28;20077;-70
2021/05/10 09:04:35;;;;;;;4.60;2.10;;;;;;;21.99;31.32;100338.53;5015231;28;20074;-74
2021/05/10 09:07:16;;;;;;;5.78;2.00;;;;;;;22.14;30.74;100326.06;5015123;28;20396;-74
2021/05/10 09:09:52;;;;;;;6.18;2.28;;;;;;;22.09;30.52;100333.84;5032853;28;20039;-75
2021/05/10 09:12:19;;;;;;;7.40;2.15;;;;;;;22.12;30.79;100330.81;5032967;28;20057;-71
2021/05/10 09:14:45;;;;;;;4.10;2.03;;;;;;;22.21;30.54;100320.81;4998344;28;20041;-71
2021/05/10 09:17:10;;;;;;;5.57;2.25;;;;;;;22.27;30.53;100310.13;5012951;28;20034;-72
2021/05/10 09:19:57;;;;;;;4.05;1.73;;;;;;;22.27;30.73;100315.56;5012167;28;20052;-71
2021/05/10 09:22:24;;;;;;;7.10;2.10;;;;;;;22.24;30.17;100315.91;4981089;28;20502;-74
2021/05/10 09:24:51;;;;;;;7.10;2.90;;;;;;;22.23;30.08;100295.19;5012980;28;20129;-71
2021/05/10 09:27:26;;;;;;;6.80;2.47;;;;;;;22.32;30.45;100311.50;5012879;28;20034;-75
2021/05/10 09:30:11;;;;;;;4.78;2.47;;;;;;;22.44;30.20;100305.56;5012733;28;20030;-74
2021/05/10 09:32:37;;;;;;;8.18;2.33;;;;;;;22.63;29.81;100309.84;4998841;28;20030;-75
2021/05/10 09:35:17;;;;;;;6.25;2.50;;;;;;;22.61;30.21;100317.34;4998882;28;20056;-72
2021/05/10 09:37:42;;;;;;;7.90;2.25;;;;;;;22.58;30.09;100306.78;5022676;28;20366;-73
2021/05/10 09:40:09;;;;;;;5.47;2.38;;;;;;;22.69;29.44;100313.78;5018928;28;20056;-75
2021/05/10 09:42:56;;;;;;;3.88;2.17;;;;;;;22.83;29.31;100308.50;5018430;28;20417;-73
2021/05/10 09:45:44;;;;;;;4.38;2.28;;;;;;;22.83;29.60;100305.78;5018741;28;20120;-74
2021/05/10 09:48:29;;;;;;;7.10;2.50;;;;;;;22.86;29.78;100299.16;5036285;28;20042;-74
2021/05/10 09:50:56;;;;;;;5.80;2.75;;;;;;;22.74;29.67;100306.78;5019076;28;20116;-75
2021/05/10 09:53:33;;;;;;;7.05;2.55;;;;;;;22.76;29.00;100293.88;5036815;28;20041;-71
2021/05/10 09:55:59;;;;;;;5.28;2.20;;;;;;;22.76;29.48;100293.88;5018687;28;20041;-76
2021/05/10 09:58:35;;;;;;;5.05;2.15;;;;;;;22.91;29.20;100290.50;5035851;28;20087;-75
2021/05/10 10:01:07;;;;;;;5.75;2.35;;;;;;;22.97;30.19;100290.69;5036316;28;20061;-75
2021/05/10 10:03:38;;;;;;;5.43;2.10;;;;;;;22.74;30.29;100263.28;5036340;28;20385;-75
2021/05/10 10:06:07;;;;;;;5.30;2.30;;;;;;;22.84;29.21;100264.00;5036359;28;20033;-75
2021/05/10 10:08:33;;;;;;;7.35;2.42;;;;;;;22.96;29.35;100252.75;5009700;28;20036;-76
2021/05/10 10:10:59;;;;;;;5.05;2.30;;;;;;;22.94;29.20;100242.06;5016303;28;20042;-73
2021/05/10 10:13:26;;;;;;;5.80;2.10;;;;;;;23.24;29.81;100259.50;4982510;28;20033;-75
2021/05/10 10:15:52;;;;;;;4.53;2.20;;;;;;;23.31;29.33;100244.19;4998210;28;20061;-79
2021/05/10 10:18:22;;;;;;;4.80;2.20;;;;;;;23.33;29.45;100231.25;4998570;28;20486;-75
2021/05/10 10:20:49;;;;;;;5.07;1.98;;;;;;;23.29;29.41;100248.13;4982581;28;20390;-76
2021/05/10 10:23:18;;;;;;;4.15;2.10;;;;;;;23.23;29.97;100246.94;5016135;28;20128;-76
2021/05/10 10:25:44;;;;;;;6.03;2.30;;;;;;;23.42;29.66;100251.97;5014923;28;20037;-78
2021/05/10 10:28:14;;;;;;;5.90;2.05;;;;;;;23.39;29.25;100246.03;5015611;28;20049;-73
2021/05/10 10:30:42;;;;;;;5.85;2.00;;;;;;;23.23;28.97;100230.59;5016148;28;20382;-75
2021/05/10 10:33:18;;;;;;;5.30;2.30;;;;;;;23.24;28.69;100243.19;4982397;28;20026;-78
2021/05/10 10:35:45;;;;;;;4.18;2.65;;;;;;;23.28;28.89;100227.38;5015832;28;20041;-77
2021/05/10 10:38:11;;;;;;;8.32;2.65;;;;;;;23.38;29.04;100212.53;5026554;28;20029;-76
2021/05/10 10:40:38;;;;;;;7.63;2.30;;;;;;;23.57;29.01;100233.03;5046212;28;20405;-78
2021/05/10 10:43:21;;;;;;;6.18;2.08;;;;;;;23.65;28.71;100240.38;5040092;28;20619;-74
2021/05/10 10:46:18;;;;;;;4.20;1.90;;;;;;;23.59;28.54;100235.63;5035403;28;20496;-74
2021/05/10 10:48:44;;;;;;;6.57;2.33;;;;;;;23.68;28.70;100220.94;5035308;28;20033;-75
2021/05/10 10:51:12;;;;;;;4.43;2.30;;;;;;;23.82;28.69;100228.34;5017748;28;20042;-74
2021/05/10 10:53:44;;;;;;;4.88;1.90;;;;;;;23.92;28.89;100226.25;5035456;28;20037;-72
2021/05/10 10:56:10;;;;;;;5.50;2.15;;;;;;;24.07;28.20;100233.66;5017366;28;20074;-74
2021/05/10 10:58:37;;;;;;;5.03;2.22;;;;;;;24.19;28.21;100221.31;5017126;28;20401;-70
2021/05/10 11:01:14;;;;;;;4.35;2.17;;;;;;;24.25;27.65;100226.06;5034652;28;20041;-70
2021/05/10 11:03:40;;;;;;;5.38;1.85;;;;;;;24.18;28.08;100197.81;5035024;28;20037;-73
2021/05/10 11:06:08;;;;;;;6.15;2.28;;;;;;;24.31;27.66;100194.47;5017611;28;20038;-71
2021/05/10 11:08:40;;;;;;;3.67;2.13;;;;;;;24.39;27.68;100205.34;5000486;28;20132;-71
2021/05/10 11:11:09;;;;;;;8.57;2.40;;;;;;;24.53;28.24;100201.84;5034836;28;20417;-72
2021/05/10 11:13:37;;;;;;;5.68;2.30;;;;;;;24.58;27.53;100212.19;5017351;28;20127;-71
2021/05/10 11:16:10;;;;;;;4.75;2.40;;;;;;;24.68;26.65;100210.03;5034671;28;20382;-70
2021/05/10 11:19:04;;;;;;;5.25;2.22;;;;;;;24.76;26.70;100207.25;5034794;28;20151;-74
2021/05/10 11:21:29;;;;;;;5.20;2.30;;;;;;;24.93;26.43;100218.84;5037579;28;20037;-73
2021/05/10 11:24:10;;;;;;;6.28;2.50;;;;;;;24.88;26.85;100207.63;5034631;28;20075;-73
2021/05/10 11:26:46;;;;;;;5.18;2.40;;;;;;;24.81;26.73;100205.66;5017858;28;20037;-73
2021/05/10 11:29:27;;;;;;;4.53;2.30;;;;;;;24.64;27.33;100200.56;5016766;28;20029;-71
2021/05/10 11:32:22;;;;;;;6.18;2.42;;;;;;;24.39;27.10;100178.94;5034655;28;20460;-73
2021/05/10 11:34:48;;;;;;;5.45;1.98;;;;;;;24.58;26.82;100212.19;5016688;28;20091;-71